sensor_id;sensor_type;location;lat;lon;timestamp;P1;durP1;ratioP1;P2;durP2;ratioP2
41799;SDS011;27468;47.460;19.034;2022-07-24T00:01:24;12.32;;;10.85;;
41799;SDS011;27468;47.460;19.034;2022-07-24T00:03:49;12.15;;;10.73;;
41799;SDS011;27468;47.460;19.034;2022-07-24T00:06:14;11.35;;;10.23;;
41799;SDS011;27468;47.460;19.034;2022-07-24T00:08:40;11.75;;;9.98;;
41799;SDS011;27468;47.460;19.034;2022-07-24T00:11:05;11.20;;;9.70;;
41799;SDS011;27468;47.460;19.034;2022-07-24T00:13:31;11.32;;;9.55;;
41799;SDS011;27468;47.460;19.034;2022-07-24T00:15:56;10.32;;;9.15;;
41799;SDS011;27468;47.460;19.034;2022-07-24T00:18:22;12.93;;;9.60;;
41799;SDS011;27468;47.460;19.034;2022-07-24T00:20:47;10.80;;;9.65;;
41799;SDS011;27468;47.460;19.034;2022-07-24T00:23:12;10.57;;;9.43;;
41799;SDS011;27468;47.460;19.034;2022-07-24T00:25:38;10.75;;;9.68;;
41799;SDS011;27468;47.460;19.034;2022-07-24T00:28:03;11.25;;;9.60;;
41799;SDS011;27468;47.460;19.034;2022-07-24T00:30:29;10.25;;;9.25;;
41799;SDS011;27468;47.460;19.034;2022-07-24T00:32:54;11.10;;;9.90;;
41799;SDS011;27468;47.460;19.034;2022-07-24T00:35:21;11.25;;;9.85;;
41799;SDS011;27468;47.460;19.034;2022-07-24T00:37:47;11.02;;;9.70;;
41799;SDS011;27468;47.460;19.034;2022-07-24T00:40:12;11.18;;;10.07;;
41799;SDS011;27468;47.460;19.034;2022-07-24T00:42:38;10.70;;;9.65;;
41799;SDS011;27468;47.460;19.034;2022-07-24T00:45:04;12.63;;;10.88;;
41799;SDS011;27468;47.460;19.034;2022-07-24T00:47:29;12.48;;;10.55;;
41799;SDS011;27468;47.460;19.034;2022-07-24T00:49:55;12.23;;;10.88;;
41799;SDS011;27468;47.460;19.034;2022-07-24T00:52:20;11.27;;;10.10;;
41799;SDS011;27468;47.460;19.034;2022-07-24T00:54:46;11.57;;;10.38;;
41799;SDS011;27468;47.460;19.034;2022-07-24T00:57:11;11.05;;;9.98;;
41799;SDS011;27468;47.460;19.034;2022-07-24T00:59:37;11.27;;;10.10;;
41799;SDS011;27468;47.460;19.034;2022-07-24T01:02:02;11.68;;;10.48;;
41799;SDS011;27468;47.460;19.034;2022-07-24T01:04:28;11.20;;;9.65;;
41799;SDS011;27468;47.460;19.034;2022-07-24T01:06:53;10.63;;;9.52;;
41799;SDS011;27468;47.460;19.034;2022-07-24T01:09:19;11.48;;;9.73;;
41799;SDS011;27468;47.460;19.034;2022-07-24T01:11:44;11.77;;;9.80;;
41799;SDS011;27468;47.460;19.034;2022-07-24T01:14:10;10.63;;;9.52;;
41799;SDS011;27468;47.460;19.034;2022-07-24T01:16:38;11.10;;;9.68;;
41799;SDS011;27468;47.460;19.034;2022-07-24T01:19:04;10.70;;;9.70;;
41799;SDS011;27468;47.460;19.034;2022-07-24T01:21:30;10.77;;;9.60;;
41799;SDS011;27468;47.460;19.034;2022-07-24T01:23:55;10.85;;;9.32;;
41799;SDS011;27468;47.460;19.034;2022-07-24T01:26:21;10.50;;;9.50;;
41799;SDS011;27468;47.460;19.034;2022-07-24T01:28:46;9.65;;;8.48;;
41799;SDS011;27468;47.460;19.034;2022-07-24T01:31:11;9.90;;;8.90;;
41799;SDS011;27468;47.460;19.034;2022-07-24T01:33:37;10.23;;;9.20;;
41799;SDS011;27468;47.460;19.034;2022-07-24T01:36:02;9.80;;;8.82;;
41799;SDS011;27468;47.460;19.034;2022-07-24T01:38:28;10.18;;;9.05;;
41799;SDS011;27468;47.460;19.034;2022-07-24T01:40:53;8.98;;;8.07;;
41799;SDS011;27468;47.460;19.034;2022-07-24T01:43:19;9.85;;;8.50;;
41799;SDS011;27468;47.460;19.034;2022-07-24T01:45:44;9.77;;;8.77;;
41799;SDS011;27468;47.460;19.034;2022-07-24T01:48:10;9.63;;;8.32;;
41799;SDS011;27468;47.460;19.034;2022-07-24T01:50:36;9.15;;;8.25;;
41799;SDS011;27468;47.460;19.034;2022-07-24T01:53:02;8.85;;;7.95;;
41799;SDS011;27468;47.460;19.034;2022-07-24T01:55:28;9.95;;;8.48;;
41799;SDS011;27468;47.460;19.034;2022-07-24T01:57:54;9.77;;;7.93;;
41799;SDS011;27468;47.460;19.034;2022-07-24T02:00:19;8.60;;;7.72;;
41799;SDS011;27468;47.460;19.034;2022-07-24T02:02:45;8.75;;;7.93;;
41799;SDS011;27468;47.460;19.034;2022-07-24T02:05:11;8.77;;;7.95;;
41799;SDS011;27468;47.460;19.034;2022-07-24T02:07:38;10.48;;;8.75;;
41799;SDS011;27468;47.460;19.034;2022-07-24T02:10:04;9.35;;;7.90;;
41799;SDS011;27468;47.460;19.034;2022-07-24T02:12:30;8.60;;;7.70;;
41799;SDS011;27468;47.460;19.034;2022-07-24T02:14:55;8.35;;;7.55;;
41799;SDS011;27468;47.460;19.034;2022-07-24T02:17:21;10.02;;;7.78;;
41799;SDS011;27468;47.460;19.034;2022-07-24T02:19:46;11.55;;;8.15;;
41799;SDS011;27468;47.460;19.034;2022-07-24T02:22:12;9.85;;;8.95;;
41799;SDS011;27468;47.460;19.034;2022-07-24T02:24:38;10.45;;;8.68;;
41799;SDS011;27468;47.460;19.034;2022-07-24T02:27:03;9.35;;;8.30;;
41799;SDS011;27468;47.460;19.034;2022-07-24T02:29:29;9.48;;;8.52;;
41799;SDS011;27468;47.460;19.034;2022-07-24T02:31:54;9.32;;;7.95;;
41799;SDS011;27468;47.460;19.034;2022-07-24T02:34:19;9.45;;;8.02;;
41799;SDS011;27468;47.460;19.034;2022-07-24T02:36:45;9.18;;;8.10;;
41799;SDS011;27468;47.460;19.034;2022-07-24T02:39:10;9.27;;;8.38;;
41799;SDS011;27468;47.460;19.034;2022-07-24T02:41:36;9.45;;;8.52;;
41799;SDS011;27468;47.460;19.034;2022-07-24T02:44:01;9.60;;;8.18;;
41799;SDS011;27468;47.460;19.034;2022-07-24T02:46:27;9.10;;;8.20;;
41799;SDS011;27468;47.460;19.034;2022-07-24T02:48:52;8.80;;;7.88;;
41799;SDS011;27468;47.460;19.034;2022-07-24T02:51:18;9.82;;;8.35;;
41799;SDS011;27468;47.460;19.034;2022-07-24T02:53:43;9.48;;;8.57;;
41799;SDS011;27468;47.460;19.034;2022-07-24T02:56:09;9.38;;;8.15;;
41799;SDS011;27468;47.460;19.034;2022-07-24T02:58:34;9.35;;;8.27;;
41799;SDS011;27468;47.460;19.034;2022-07-24T03:01:00;10.35;;;7.97;;
41799;SDS011;27468;47.460;19.034;2022-07-24T03:03:25;11.07;;;8.98;;
41799;SDS011;27468;47.460;19.034;2022-07-24T03:05:51;9.65;;;8.38;;
41799;SDS011;27468;47.460;19.034;2022-07-24T03:08:16;11.88;;;8.57;;
41799;SDS011;27468;47.460;19.034;2022-07-24T03:10:42;9.30;;;8.23;;
41799;SDS011;27468;47.460;19.034;2022-07-24T03:13:07;9.70;;;8.70;;
41799;SDS011;27468;47.460;19.034;2022-07-24T03:15:33;9.32;;;8.32;;
41799;SDS011;27468;47.460;19.034;2022-07-24T03:17:59;10.00;;;8.77;;
41799;SDS011;27468;47.460;19.034;2022-07-24T03:20:25;10.30;;;7.80;;
41799;SDS011;27468;47.460;19.034;2022-07-24T03:22:52;9.95;;;8.43;;
41799;SDS011;27468;47.460;19.034;2022-07-24T03:25:18;9.60;;;8.40;;
41799;SDS011;27468;47.460;19.034;2022-07-24T03:27:44;9.00;;;7.88;;
41799;SDS011;27468;47.460;19.034;2022-07-24T03:30:11;10.00;;;8.40;;
41799;SDS011;27468;47.460;19.034;2022-07-24T03:32:37;9.70;;;8.32;;
41799;SDS011;27468;47.460;19.034;2022-07-24T03:35:03;11.55;;;9.15;;
41799;SDS011;27468;47.460;19.034;2022-07-24T03:37:28;9.65;;;8.30;;
41799;SDS011;27468;47.460;19.034;2022-07-24T03:39:54;9.45;;;8.45;;
41799;SDS011;27468;47.460;19.034;2022-07-24T03:42:21;9.65;;;8.43;;
41799;SDS011;27468;47.460;19.034;2022-07-24T03:44:46;9.85;;;8.30;;
41799;SDS011;27468;47.460;19.034;2022-07-24T03:47:11;10.80;;;8.52;;
41799;SDS011;27468;47.460;19.034;2022-07-24T03:49:37;9.15;;;8.20;;
41799;SDS011;27468;47.460;19.034;2022-07-24T03:52:03;10.43;;;8.60;;
41799;SDS011;27468;47.460;19.034;2022-07-24T03:54:28;10.32;;;8.55;;
41799;SDS011;27468;47.460;19.034;2022-07-24T03:56:54;8.93;;;8.02;;
41799;SDS011;27468;47.460;19.034;2022-07-24T03:59:19;10.07;;;8.18;;
41799;SDS011;27468;47.460;19.034;2022-07-24T04:01:45;10.50;;;8.27;;
41799;SDS011;27468;47.460;19.034;2022-07-24T04:04:10;10.07;;;8.52;;
41799;SDS011;27468;47.460;19.034;2022-07-24T04:06:36;9.18;;;8.20;;
41799;SDS011;27468;47.460;19.034;2022-07-24T04:09:03;10.75;;;8.18;;
41799;SDS011;27468;47.460;19.034;2022-07-24T04:11:29;9.98;;;8.23;;
41799;SDS011;27468;47.460;19.034;2022-07-24T04:13:55;9.55;;;7.90;;
41799;SDS011;27468;47.460;19.034;2022-07-24T04:16:20;8.80;;;8.00;;
41799;SDS011;27468;47.460;19.034;2022-07-24T04:18:47;8.98;;;7.97;;
41799;SDS011;27468;47.460;19.034;2022-07-24T04:21:12;9.40;;;8.35;;
41799;SDS011;27468;47.460;19.034;2022-07-24T04:23:38;9.07;;;7.60;;
41799;SDS011;27468;47.460;19.034;2022-07-24T04:26:03;8.73;;;7.80;;
41799;SDS011;27468;47.460;19.034;2022-07-24T04:28:29;8.57;;;7.78;;
41799;SDS011;27468;47.460;19.034;2022-07-24T04:30:54;8.55;;;7.65;;
41799;SDS011;27468;47.460;19.034;2022-07-24T04:33:20;8.48;;;7.60;;
41799;SDS011;27468;47.460;19.034;2022-07-24T04:35:45;8.95;;;8.15;;
41799;SDS011;27468;47.460;19.034;2022-07-24T04:38:11;8.20;;;7.47;;
41799;SDS011;27468;47.460;19.034;2022-07-24T04:40:36;8.30;;;7.53;;
41799;SDS011;27468;47.460;19.034;2022-07-24T04:43:01;10.50;;;8.35;;
41799;SDS011;27468;47.460;19.034;2022-07-24T04:45:27;9.18;;;8.13;;
41799;SDS011;27468;47.460;19.034;2022-07-24T04:47:52;8.48;;;7.70;;
41799;SDS011;27468;47.460;19.034;2022-07-24T04:50:18;8.85;;;8.00;;
41799;SDS011;27468;47.460;19.034;2022-07-24T04:52:43;9.35;;;8.45;;
41799;SDS011;27468;47.460;19.034;2022-07-24T04:55:09;9.27;;;8.38;;
41799;SDS011;27468;47.460;19.034;2022-07-24T04:57:36;9.77;;;8.77;;
41799;SDS011;27468;47.460;19.034;2022-07-24T05:00:03;9.70;;;8.68;;
41799;SDS011;27468;47.460;19.034;2022-07-24T05:02:31;11.10;;;9.95;;
41799;SDS011;27468;47.460;19.034;2022-07-24T05:04:56;11.20;;;8.93;;
41799;SDS011;27468;47.460;19.034;2022-07-24T05:07:22;10.15;;;9.25;;
41799;SDS011;27468;47.460;19.034;2022-07-24T05:09:47;10.10;;;9.20;;
41799;SDS011;27468;47.460;19.034;2022-07-24T05:12:13;10.00;;;9.00;;
41799;SDS011;27468;47.460;19.034;2022-07-24T05:14:38;10.23;;;9.20;;
41799;SDS011;27468;47.460;19.034;2022-07-24T05:17:04;10.05;;;9.05;;
41799;SDS011;27468;47.460;19.034;2022-07-24T05:19:29;10.50;;;9.13;;
41799;SDS011;27468;47.460;19.034;2022-07-24T05:21:55;10.82;;;9.80;;
41799;SDS011;27468;47.460;19.034;2022-07-24T05:24:20;11.10;;;9.95;;
41799;SDS011;27468;47.460;19.034;2022-07-24T05:26:45;11.10;;;10.02;;
41799;SDS011;27468;47.460;19.034;2022-07-24T05:29:11;11.65;;;10.48;;
41799;SDS011;27468;47.460;19.034;2022-07-24T05:31:36;11.48;;;10.38;;
41799;SDS011;27468;47.460;19.034;2022-07-24T05:34:02;11.13;;;10.02;;
41799;SDS011;27468;47.460;19.034;2022-07-24T05:36:27;11.27;;;10.07;;
41799;SDS011;27468;47.460;19.034;2022-07-24T05:38:53;11.55;;;10.45;;
41799;SDS011;27468;47.460;19.034;2022-07-24T05:41:18;11.40;;;10.30;;
41799;SDS011;27468;47.460;19.034;2022-07-24T05:43:44;11.45;;;10.25;;
41799;SDS011;27468;47.460;19.034;2022-07-24T05:46:09;11.48;;;10.05;;
41799;SDS011;27468;47.460;19.034;2022-07-24T05:48:35;11.30;;;10.20;;
41799;SDS011;27468;47.460;19.034;2022-07-24T05:51:00;12.52;;;10.48;;
41799;SDS011;27468;47.460;19.034;2022-07-24T05:53:26;11.98;;;10.52;;
41799;SDS011;27468;47.460;19.034;2022-07-24T05:55:51;11.63;;;10.38;;
41799;SDS011;27468;47.460;19.034;2022-07-24T05:58:17;12.10;;;10.90;;
41799;SDS011;27468;47.460;19.034;2022-07-24T06:00:42;12.10;;;10.90;;
41799;SDS011;27468;47.460;19.034;2022-07-24T06:03:08;13.27;;;10.93;;
41799;SDS011;27468;47.460;19.034;2022-07-24T06:05:34;11.55;;;10.45;;
41799;SDS011;27468;47.460;19.034;2022-07-24T06:07:59;11.20;;;10.02;;
41799;SDS011;27468;47.460;19.034;2022-07-24T06:10:24;11.68;;;10.45;;
41799;SDS011;27468;47.460;19.034;2022-07-24T06:12:50;11.82;;;10.65;;
41799;SDS011;27468;47.460;19.034;2022-07-24T06:15:15;11.95;;;10.80;;
41799;SDS011;27468;47.460;19.034;2022-07-24T06:17:41;11.50;;;10.40;;
41799;SDS011;27468;47.460;19.034;2022-07-24T06:20:07;11.85;;;10.65;;
41799;SDS011;27468;47.460;19.034;2022-07-24T06:22:35;12.07;;;10.95;;
41799;SDS011;27468;47.460;19.034;2022-07-24T06:25:00;13.15;;;10.60;;
41799;SDS011;27468;47.460;19.034;2022-07-24T06:27:25;12.43;;;11.15;;
41799;SDS011;27468;47.460;19.034;2022-07-24T06:29:51;13.10;;;11.85;;
41799;SDS011;27468;47.460;19.034;2022-07-24T06:32:16;12.75;;;11.45;;
41799;SDS011;27468;47.460;19.034;2022-07-24T06:34:42;13.07;;;11.70;;
41799;SDS011;27468;47.460;19.034;2022-07-24T06:37:07;13.45;;;12.05;;
41799;SDS011;27468;47.460;19.034;2022-07-24T06:39:33;12.43;;;11.23;;
41799;SDS011;27468;47.460;19.034;2022-07-24T06:41:58;13.30;;;11.90;;
41799;SDS011;27468;47.460;19.034;2022-07-24T06:44:24;12.85;;;11.55;;
41799;SDS011;27468;47.460;19.034;2022-07-24T06:46:50;12.13;;;11.02;;
41799;SDS011;27468;47.460;19.034;2022-07-24T06:49:15;12.43;;;11.23;;
41799;SDS011;27468;47.460;19.034;2022-07-24T06:51:41;12.55;;;11.30;;
41799;SDS011;27468;47.460;19.034;2022-07-24T06:54:06;12.88;;;11.68;;
41799;SDS011;27468;47.460;19.034;2022-07-24T06:56:32;12.77;;;11.48;;
41799;SDS011;27468;47.460;19.034;2022-07-24T06:58:57;13.00;;;11.80;;
41799;SDS011;27468;47.460;19.034;2022-07-24T07:01:24;12.63;;;11.43;;
41799;SDS011;27468;47.460;19.034;2022-07-24T07:03:51;13.30;;;12.05;;
41799;SDS011;27468;47.460;19.034;2022-07-24T07:06:17;13.27;;;12.07;;
41799;SDS011;27468;47.460;19.034;2022-07-24T07:08:43;12.65;;;11.40;;
41799;SDS011;27468;47.460;19.034;2022-07-24T07:11:08;12.65;;;11.45;;
41799;SDS011;27468;47.460;19.034;2022-07-24T07:13:33;13.07;;;11.88;;
41799;SDS011;27468;47.460;19.034;2022-07-24T07:15:59;12.07;;;10.98;;
41799;SDS011;27468;47.460;19.034;2022-07-24T07:18:25;12.13;;;10.98;;
41799;SDS011;27468;47.460;19.034;2022-07-24T07:20:51;12.88;;;11.57;;
41799;SDS011;27468;47.460;19.034;2022-07-24T07:23:20;11.88;;;10.77;;
41799;SDS011;27468;47.460;19.034;2022-07-24T07:25:49;11.52;;;10.43;;
41799;SDS011;27468;47.460;19.034;2022-07-24T07:28:15;12.02;;;10.85;;
41799;SDS011;27468;47.460;19.034;2022-07-24T07:30:41;11.45;;;10.27;;
41799;SDS011;27468;47.460;19.034;2022-07-24T07:33:06;11.15;;;10.15;;
41799;SDS011;27468;47.460;19.034;2022-07-24T07:35:32;11.60;;;10.50;;
41799;SDS011;27468;47.460;19.034;2022-07-24T07:37:57;11.52;;;10.48;;
41799;SDS011;27468;47.460;19.034;2022-07-24T07:40:24;11.35;;;10.35;;
41799;SDS011;27468;47.460;19.034;2022-07-24T07:42:50;11.25;;;10.15;;
41799;SDS011;27468;47.460;19.034;2022-07-24T07:45:16;11.45;;;10.35;;
41799;SDS011;27468;47.460;19.034;2022-07-24T07:47:41;11.38;;;10.32;;
41799;SDS011;27468;47.460;19.034;2022-07-24T07:50:07;11.57;;;10.48;;
41799;SDS011;27468;47.460;19.034;2022-07-24T07:52:33;11.15;;;10.00;;
41799;SDS011;27468;47.460;19.034;2022-07-24T07:54:58;11.55;;;10.50;;
41799;SDS011;27468;47.460;19.034;2022-07-24T07:57:24;11.80;;;10.70;;
41799;SDS011;27468;47.460;19.034;2022-07-24T07:59:49;10.63;;;9.73;;
41799;SDS011;27468;47.460;19.034;2022-07-24T08:02:14;10.75;;;9.68;;
41799;SDS011;27468;47.460;19.034;2022-07-24T08:04:41;10.52;;;9.52;;
41799;SDS011;27468;47.460;19.034;2022-07-24T08:07:06;10.57;;;9.52;;
41799;SDS011;27468;47.460;19.034;2022-07-24T08:09:32;10.77;;;9.77;;
41799;SDS011;27468;47.460;19.034;2022-07-24T08:11:57;11.05;;;10.02;;
41799;SDS011;27468;47.460;19.034;2022-07-24T08:14:23;11.60;;;10.52;;
41799;SDS011;27468;47.460;19.034;2022-07-24T08:16:48;10.85;;;9.77;;
41799;SDS011;27468;47.460;19.034;2022-07-24T08:19:14;11.55;;;10.35;;
41799;SDS011;27468;47.460;19.034;2022-07-24T08:21:39;12.10;;;11.00;;
41799;SDS011;27468;47.460;19.034;2022-07-24T08:24:05;11.50;;;10.40;;
41799;SDS011;27468;47.460;19.034;2022-07-24T08:26:31;12.02;;;10.93;;
41799;SDS011;27468;47.460;19.034;2022-07-24T08:28:57;11.90;;;10.80;;
41799;SDS011;27468;47.460;19.034;2022-07-24T08:31:26;11.48;;;10.48;;
41799;SDS011;27468;47.460;19.034;2022-07-24T08:33:52;11.80;;;10.60;;
41799;SDS011;27468;47.460;19.034;2022-07-24T08:36:18;11.55;;;10.40;;
41799;SDS011;27468;47.460;19.034;2022-07-24T08:38:43;12.05;;;10.95;;
41799;SDS011;27468;47.460;19.034;2022-07-24T08:41:09;12.55;;;11.25;;
41799;SDS011;27468;47.460;19.034;2022-07-24T08:43:34;12.20;;;11.00;;
41799;SDS011;27468;47.460;19.034;2022-07-24T08:46:00;12.07;;;10.88;;
41799;SDS011;27468;47.460;19.034;2022-07-24T08:48:28;12.00;;;10.90;;
41799;SDS011;27468;47.460;19.034;2022-07-24T08:50:54;11.52;;;10.43;;
41799;SDS011;27468;47.460;19.034;2022-07-24T08:53:21;11.63;;;10.50;;
41799;SDS011;27468;47.460;19.034;2022-07-24T08:55:47;11.07;;;10.00;;
41799;SDS011;27468;47.460;19.034;2022-07-24T08:58:13;10.65;;;9.65;;
41799;SDS011;27468;47.460;19.034;2022-07-24T09:00:39;9.75;;;8.90;;
41799;SDS011;27468;47.460;19.034;2022-07-24T09:03:06;9.77;;;8.88;;
41799;SDS011;27468;47.460;19.034;2022-07-24T09:05:31;10.13;;;9.15;;
41799;SDS011;27468;47.460;19.034;2022-07-24T09:08:33;10.05;;;9.15;;
41799;SDS011;27468;47.460;19.034;2022-07-24T09:10:55;9.43;;;8.63;;
41799;SDS011;27468;47.460;19.034;2022-07-24T09:13:25;9.55;;;8.52;;
41799;SDS011;27468;47.460;19.034;2022-07-24T09:15:52;8.63;;;7.93;;
41799;SDS011;27468;47.460;19.034;2022-07-24T09:18:25;9.20;;;8.30;;
41799;SDS011;27468;47.460;19.034;2022-07-24T09:20:58;9.07;;;8.27;;
41799;SDS011;27468;47.460;19.034;2022-07-24T09:23:25;9.18;;;8.27;;
41799;SDS011;27468;47.460;19.034;2022-07-24T09:25:52;9.07;;;8.18;;
41799;SDS011;27468;47.460;19.034;2022-07-24T09:28:18;8.18;;;7.47;;
41799;SDS011;27468;47.460;19.034;2022-07-24T09:30:44;8.60;;;7.80;;
41799;SDS011;27468;47.460;19.034;2022-07-24T09:35:37;10.13;;;9.10;;
41799;SDS011;27468;47.460;19.034;2022-07-24T09:38:06;9.60;;;8.70;;
41799;SDS011;27468;47.460;19.034;2022-07-24T09:40:39;9.75;;;8.90;;
41799;SDS011;27468;47.460;19.034;2022-07-24T09:43:23;10.63;;;9.50;;
41799;SDS011;27468;47.460;19.034;2022-07-24T09:50:53;10.70;;;9.80;;
41799;SDS011;27468;47.460;19.034;2022-07-24T09:53:20;11.57;;;10.48;;
41799;SDS011;27468;47.460;19.034;2022-07-24T09:58:32;11.38;;;10.48;;
41799;SDS011;27468;47.460;19.034;2022-07-24T10:01:00;10.68;;;9.68;;
41799;SDS011;27468;47.460;19.034;2022-07-24T10:03:29;10.60;;;9.65;;
41799;SDS011;27468;47.460;19.034;2022-07-24T10:05:58;10.25;;;9.25;;
41799;SDS011;27468;47.460;19.034;2022-07-24T10:08:26;9.50;;;8.60;;
41799;SDS011;27468;47.460;19.034;2022-07-24T10:10:52;10.05;;;9.20;;
41799;SDS011;27468;47.460;19.034;2022-07-24T10:13:18;10.10;;;9.20;;
41799;SDS011;27468;47.460;19.034;2022-07-24T10:26:36;10.80;;;9.70;;
41799;SDS011;27468;47.460;19.034;2022-07-24T10:31:45;11.88;;;10.70;;
41799;SDS011;27468;47.460;19.034;2022-07-24T10:36:59;10.68;;;9.75;;
41799;SDS011;27468;47.460;19.034;2022-07-24T10:42:28;9.25;;;8.48;;
41799;SDS011;27468;47.460;19.034;2022-07-24T10:47:39;10.13;;;9.13;;
41799;SDS011;27468;47.460;19.034;2022-07-24T10:50:04;9.68;;;8.77;;
41799;SDS011;27468;47.460;19.034;2022-07-24T10:52:30;8.32;;;7.47;;
41799;SDS011;27468;47.460;19.034;2022-07-24T11:00:32;8.55;;;7.85;;
41799;SDS011;27468;47.460;19.034;2022-07-24T11:05:36;9.65;;;8.77;;
41799;SDS011;27468;47.460;19.034;2022-07-24T11:26:50;8.27;;;7.57;;
41799;SDS011;27468;47.460;19.034;2022-07-24T11:32:10;7.63;;;6.93;;
41799;SDS011;27468;47.460;19.034;2022-07-24T11:34:46;8.15;;;7.38;;
41799;SDS011;27468;47.460;19.034;2022-07-24T11:37:15;8.13;;;7.40;;
41799;SDS011;27468;47.460;19.034;2022-07-24T11:39:42;8.55;;;7.75;;
41799;SDS011;27468;47.460;19.034;2022-07-24T11:42:10;7.60;;;7.00;;
41799;SDS011;27468;47.460;19.034;2022-07-24T11:44:41;7.70;;;7.10;;
41799;SDS011;27468;47.460;19.034;2022-07-24T11:49:49;6.97;;;6.47;;
41799;SDS011;27468;47.460;19.034;2022-07-24T11:52:21;7.13;;;6.47;;
41799;SDS011;27468;47.460;19.034;2022-07-24T11:54:47;5.72;;;5.22;;
41799;SDS011;27468;47.460;19.034;2022-07-24T11:57:15;5.80;;;5.30;;
41799;SDS011;27468;47.460;19.034;2022-07-24T11:59:43;5.75;;;5.25;;
41799;SDS011;27468;47.460;19.034;2022-07-24T12:02:09;5.80;;;5.30;;
41799;SDS011;27468;47.460;19.034;2022-07-24T12:04:37;5.50;;;5.00;;
41799;SDS011;27468;47.460;19.034;2022-07-24T12:07:12;6.07;;;5.50;;
41799;SDS011;27468;47.460;19.034;2022-07-24T12:12:20;6.43;;;5.90;;
41799;SDS011;27468;47.460;19.034;2022-07-24T12:14:46;6.18;;;5.68;;
41799;SDS011;27468;47.460;19.034;2022-07-24T12:17:11;6.57;;;5.95;;
41799;SDS011;27468;47.460;19.034;2022-07-24T12:19:37;5.70;;;5.20;;
41799;SDS011;27468;47.460;19.034;2022-07-24T12:22:02;5.75;;;5.18;;
41799;SDS011;27468;47.460;19.034;2022-07-24T12:24:30;5.68;;;5.18;;
41799;SDS011;27468;47.460;19.034;2022-07-24T12:26:56;5.20;;;4.80;;
41799;SDS011;27468;47.460;19.034;2022-07-24T12:29:24;5.63;;;5.18;;
41799;SDS011;27468;47.460;19.034;2022-07-24T12:32:24;5.93;;;5.35;;
41799;SDS011;27468;47.460;19.034;2022-07-24T12:34:44;5.78;;;5.20;;
41799;SDS011;27468;47.460;19.034;2022-07-24T12:37:16;5.90;;;5.40;;
41799;SDS011;27468;47.460;19.034;2022-07-24T12:39:51;5.97;;;5.47;;
41799;SDS011;27468;47.460;19.034;2022-07-24T12:42:28;5.57;;;5.15;;
41799;SDS011;27468;47.460;19.034;2022-07-24T12:45:05;5.90;;;5.30;;
41799;SDS011;27468;47.460;19.034;2022-07-24T12:47:32;5.55;;;5.05;;
41799;SDS011;27468;47.460;19.034;2022-07-24T12:49:58;5.97;;;4.93;;
41799;SDS011;27468;47.460;19.034;2022-07-24T12:52:36;5.57;;;5.00;;
41799;SDS011;27468;47.460;19.034;2022-07-24T12:55:03;5.68;;;5.15;;
41799;SDS011;27468;47.460;19.034;2022-07-24T12:57:29;5.93;;;5.43;;
41799;SDS011;27468;47.460;19.034;2022-07-24T12:59:59;5.80;;;5.30;;
41799;SDS011;27468;47.460;19.034;2022-07-24T13:02:26;6.03;;;5.53;;
41799;SDS011;27468;47.460;19.034;2022-07-24T13:04:53;5.57;;;5.07;;
41799;SDS011;27468;47.460;19.034;2022-07-24T13:07:22;5.22;;;4.82;;
41799;SDS011;27468;47.460;19.034;2022-07-24T13:09:50;5.25;;;4.82;;
41799;SDS011;27468;47.460;19.034;2022-07-24T13:12:16;4.93;;;4.53;;
41799;SDS011;27468;47.460;19.034;2022-07-24T13:14:42;4.85;;;4.45;;
41799;SDS011;27468;47.460;19.034;2022-07-24T13:17:11;5.00;;;4.60;;
41799;SDS011;27468;47.460;19.034;2022-07-24T13:19:42;5.22;;;4.72;;
41799;SDS011;27468;47.460;19.034;2022-07-24T13:22:13;5.40;;;4.90;;
41799;SDS011;27468;47.460;19.034;2022-07-24T13:24:38;4.93;;;4.47;;
41799;SDS011;27468;47.460;19.034;2022-07-24T13:27:06;5.03;;;4.63;;
41799;SDS011;27468;47.460;19.034;2022-07-24T13:29:32;5.07;;;4.57;;
41799;SDS011;27468;47.460;19.034;2022-07-24T13:31:59;5.15;;;4.65;;
41799;SDS011;27468;47.460;19.034;2022-07-24T13:34:25;5.03;;;4.53;;
41799;SDS011;27468;47.460;19.034;2022-07-24T13:36:52;5.07;;;4.68;;
41799;SDS011;27468;47.460;19.034;2022-07-24T13:39:17;5.03;;;4.53;;
41799;SDS011;27468;47.460;19.034;2022-07-24T13:41:43;5.32;;;4.82;;
41799;SDS011;27468;47.460;19.034;2022-07-24T13:44:08;4.75;;;4.35;;
41799;SDS011;27468;47.460;19.034;2022-07-24T13:46:34;5.32;;;4.90;;
41799;SDS011;27468;47.460;19.034;2022-07-24T13:49:01;5.60;;;5.10;;
41799;SDS011;27468;47.460;19.034;2022-07-24T13:51:28;4.95;;;4.55;;
41799;SDS011;27468;47.460;19.034;2022-07-24T13:53:54;5.05;;;4.50;;
41799;SDS011;27468;47.460;19.034;2022-07-24T13:56:20;5.07;;;4.57;;
41799;SDS011;27468;47.460;19.034;2022-07-24T13:58:47;5.00;;;4.60;;
41799;SDS011;27468;47.460;19.034;2022-07-24T14:01:12;4.95;;;4.55;;
41799;SDS011;27468;47.460;19.034;2022-07-24T14:03:38;4.70;;;4.28;;
41799;SDS011;27468;47.460;19.034;2022-07-24T14:06:07;4.85;;;4.45;;
41799;SDS011;27468;47.460;19.034;2022-07-24T14:08:34;4.95;;;4.55;;
41799;SDS011;27468;47.460;19.034;2022-07-24T14:11:01;4.68;;;4.28;;
41799;SDS011;27468;47.460;19.034;2022-07-24T14:13:27;4.07;;;3.78;;
41799;SDS011;27468;47.460;19.034;2022-07-24T14:15:52;4.70;;;4.28;;
41799;SDS011;27468;47.460;19.034;2022-07-24T14:18:18;5.03;;;4.63;;
41799;SDS011;27468;47.460;19.034;2022-07-24T14:20:44;4.60;;;4.20;;
41799;SDS011;27468;47.460;19.034;2022-07-24T14:23:10;4.47;;;4.07;;
41799;SDS011;27468;47.460;19.034;2022-07-24T14:25:35;4.60;;;4.20;;
41799;SDS011;27468;47.460;19.034;2022-07-24T14:28:01;4.30;;;3.85;;
41799;SDS011;27468;47.460;19.034;2022-07-24T14:30:27;4.93;;;4.38;;
41799;SDS011;27468;47.460;19.034;2022-07-24T14:32:52;4.32;;;3.70;;
41799;SDS011;27468;47.460;19.034;2022-07-24T14:35:17;4.07;;;3.78;;
41799;SDS011;27468;47.460;19.034;2022-07-24T14:37:43;5.20;;;4.28;;
41799;SDS011;27468;47.460;19.034;2022-07-24T14:40:09;4.05;;;3.75;;
41799;SDS011;27468;47.460;19.034;2022-07-24T14:42:35;4.60;;;4.00;;
41799;SDS011;27468;47.460;19.034;2022-07-24T14:45:01;4.20;;;3.80;;
41799;SDS011;27468;47.460;19.034;2022-07-24T14:47:27;4.18;;;3.78;;
41799;SDS011;27468;47.460;19.034;2022-07-24T14:49:53;4.55;;;4.10;;
41799;SDS011;27468;47.460;19.034;2022-07-24T14:52:20;4.30;;;3.90;;
41799;SDS011;27468;47.460;19.034;2022-07-24T14:54:45;4.43;;;4.03;;
41799;SDS011;27468;47.460;19.034;2022-07-24T14:57:11;4.13;;;3.78;;
41799;SDS011;27468;47.460;19.034;2022-07-24T14:59:37;4.00;;;3.60;;
41799;SDS011;27468;47.460;19.034;2022-07-24T15:02:02;4.28;;;3.88;;
41799;SDS011;27468;47.460;19.034;2022-07-24T15:04:28;4.35;;;4.00;;
41799;SDS011;27468;47.460;19.034;2022-07-24T15:06:53;3.83;;;3.53;;
41799;SDS011;27468;47.460;19.034;2022-07-24T15:09:19;4.45;;;4.05;;
41799;SDS011;27468;47.460;19.034;2022-07-24T15:11:44;4.30;;;3.90;;
41799;SDS011;27468;47.460;19.034;2022-07-24T15:14:10;4.13;;;3.72;;
41799;SDS011;27468;47.460;19.034;2022-07-24T15:16:35;3.92;;;3.53;;
41799;SDS011;27468;47.460;19.034;2022-07-24T15:19:01;4.35;;;3.95;;
41799;SDS011;27468;47.460;19.034;2022-07-24T15:21:26;4.47;;;4.07;;
41799;SDS011;27468;47.460;19.034;2022-07-24T15:23:51;4.00;;;3.70;;
41799;SDS011;27468;47.460;19.034;2022-07-24T15:26:17;4.38;;;3.97;;
41799;SDS011;27468;47.460;19.034;2022-07-24T15:28:42;3.88;;;3.58;;